DAOR

Béchar Boudghene Ben Ali Lotfi Airport

Béchar, Algeria
METAR DAOR 150000Z 31007KT 9999 SCT033 31/11 Q1019
Observed Flight Rules
Aug-15 @ 00:00 UTC (an hour ago) Visual Flight Rules
Wind Visibility Clouds
310° at 7 knots 10,000+ meters
  • Scattered at 3,300' AGL
Temperatures Readings
Current 31°C / 88°F
Dewpoint 11°C / 52°F
Humidity 29%
Altimeter 30.09" Hg
Pressure 1019 hPa
Elevation 773
METAR DAOR 150000Z 31007KT 9999 SCT033 31/11 Q1019
Observed Flight Rules
Aug-15 @ 00:00 UTC
(an hour ago)
VFR
Wind Visibility
310° at 7 knots 10,000+ meters
Clouds
  • Scattered at 3,300' AGL
Temperature Dewpoint
31°C / 88°F 11°C / 52°F
Humidity Altimeter Pressure
29% 30.09" Hg 1019 hPa